KBCE/BCE METAR and TAF weather

Enter ICAO airport designator
Station Type Date Time Source
KBCE METAR 2020/10/22 02:53 UTC NOAA

KBCE 220253Z AUTO 23007KT 10SM CLR 11/M11 A3008 RMK AO2 SLP110 T01111111 51004


Station Type Date Time Source
KBCE Decoded METAR 2020/10/22 02:53 UTC NOAA

BRYCE CANYON AIRPORT, UT, United States (KBCE) 37-42N 112-09W 2312M
Oct 21, 2020 - 10:53 PM EDT / 2020.10.22 0253 UTC
Wind: from the SW (230 degrees) at 8 MPH (7 KT):0
Visibility: 10 mile(s):0
Sky conditions: clear
Temperature: 52.0 F (11.1 C)
Dew Point: 12.0 F (-11.1 C)
Relative Humidity: 19%
Pressure (altimeter): 30.08 in. Hg (1018 hPa)
Pressure tendency: 0.01 inches (0.4 hPa) higher than three hours ago
ob: KBCE 220253Z AUTO 23007KT 10SM CLR 11/M11 A3008 RMK AO2 SLP110 T01111111 51004
cycle: 3

Station Type Date Time Source
KBCE TAF 2020/10/21 18:45 UTC NOAA

TAF KBCE 211742Z 2118/2218 27007KT P6SM SKC
FM212100 24015G25KT P6SM SKC
FM220000 26011KT P6SM SKC

Example: see airport list